Time;durP1;ratioP1;P1;durP2;ratioP2;P2;SDS_P1;SDS_P2;PMS_P1;PMS_P2;Temp;Humidity;BMP_temperature;BMP_pressure;BME280_temperature;BME280_humidity;BME280_pressure;Samples;Min_cycle;Max_cycle;Signal;HPM_P1;HPM_P2
2021/09/25 00:02:20;;;;;;;15.20;9.30;;;;;;;11.88;100.00;98631.62;2075017;85;21079;-85
2021/09/25 00:05:21;;;;;;;14.90;8.00;;;;;;;11.94;100.00;98627.44;2075234;86;20988;-84
2021/09/25 00:08:22;;;;;;;14.90;7.33;;;;;;;11.98;100.00;98637.03;2075063;86;21008;-85
2021/09/25 00:11:24;;;;;;;15.38;6.10;;;;;;;12.00;100.00;98638.49;2075380;85;21043;-84
2021/09/25 00:14:25;;;;;;;10.35;5.60;;;;;;;12.06;100.00;98640.34;2074594;86;21099;-85
2021/09/25 00:17:25;;;;;;;10.75;5.92;;;;;;;12.15;100.00;98638.38;2117073;83;21033;-84
2021/09/25 00:20:27;;;;;;;11.93;5.58;;;;;;;12.15;100.00;98638.38;2127929;84;21066;-84
2021/09/25 00:23:27;;;;;;;7.50;4.33;;;;;;;12.19;100.00;98634.39;2128085;84;21067;-84
2021/09/25 00:26:28;;;;;;;7.08;3.98;;;;;;;12.22;100.00;98636.63;2127465;84;20987;-83
2021/09/25 00:29:29;;;;;;;11.55;4.90;;;;;;;12.27;100.00;98640.00;2110999;84;21093;-84
2021/09/25 00:32:30;;;;;;;6.85;5.70;;;;;;;12.30;100.00;98640.41;2112655;84;20986;-84
2021/09/25 00:35:31;;;;;;;10.63;6.47;;;;;;;12.32;100.00;98637.09;2112683;84;21057;-84
2021/09/25 00:38:31;;;;;;;12.07;6.40;;;;;;;12.37;100.00;98642.59;2112752;84;21054;-85
2021/09/25 00:41:32;;;;;;;13.05;6.50;;;;;;;12.42;100.00;98638.87;2112250;84;20991;-84
2021/09/25 00:44:33;;;;;;;9.03;5.00;;;;;;;12.49;100.00;98642.85;2111214;84;21576;-84
2021/09/25 00:47:34;;;;;;;6.72;3.77;;;;;;;12.55;100.00;98641.28;2111217;84;20993;-84
2021/09/25 00:50:34;;;;;;;8.60;5.83;;;;;;;12.57;100.00;98640.08;2111142;84;21540;-86
2021/09/25 00:53:35;;;;;;;8.23;4.70;;;;;;;12.61;100.00;98641.80;2111196;84;21070;-85
2021/09/25 00:56:36;;;;;;;10.03;4.62;;;;;;;12.64;100.00;98643.55;2111101;84;21542;-85
2021/09/25 00:59:37;;;;;;;8.68;4.58;;;;;;;12.65;100.00;98635.98;2111326;84;21050;-85
2021/09/25 01:02:38;;;;;;;7.65;4.83;;;;;;;12.68;100.00;98630.33;2111184;84;21537;-84
2021/09/25 01:05:41;;;;;;;9.98;4.67;;;;;;;12.71;100.00;98628.64;2111175;84;21090;-85
2021/09/25 01:08:41;;;;;;;7.20;4.78;;;;;;;12.72;100.00;98622.37;2110821;84;21585;-85
2021/09/25 01:11:42;;;;;;;7.40;4.47;;;;;;;12.72;100.00;98622.37;2111118;84;21129;-85
2021/09/25 01:14:43;;;;;;;10.82;6.75;;;;;;;12.81;100.00;98636.97;2111110;84;21077;-86
2021/09/25 01:17:44;;;;;;;12.13;9.30;;;;;;;12.86;100.00;98632.43;2097397;84;21096;-85
2021/09/25 01:20:44;;;;;;;13.05;7.90;;;;;;;12.88;100.00;98633.04;2094373;85;21022;-85
2021/09/25 01:23:45;;;;;;;9.45;5.47;;;;;;;12.91;100.00;98633.98;2094349;85;21073;-86
2021/09/25 01:26:46;;;;;;;14.33;6.58;;;;;;;12.94;100.00;98626.20;2094415;85;20983;-85
2021/09/25 01:29:47;;;;;;;15.75;6.72;;;;;;;12.97;100.00;98631.86;2094280;85;21038;-85
2021/09/25 01:32:48;;;;;;;13.60;5.97;;;;;;;13.00;100.00;98635.43;2094437;85;20960;-85
2021/09/25 01:35:48;;;;;;;7.37;5.30;;;;;;;13.02;100.00;98634.72;2094360;85;21082;-84
2021/09/25 01:38:49;;;;;;;12.50;6.42;;;;;;;13.05;100.00;98637.45;2094349;85;21065;-85
2021/09/25 01:41:50;;;;;;;7.87;5.78;;;;;;;13.06;100.00;98636.44;2094282;84;21043;-85
2021/09/25 01:44:51;;;;;;;10.60;5.42;;;;;;;13.08;100.00;98636.58;2094484;85;21062;-86
2021/09/25 01:47:52;;;;;;;9.23;5.08;;;;;;;13.09;100.00;98636.87;2094495;85;20991;-84
2021/09/25 01:50:52;;;;;;;8.68;4.90;;;;;;;13.14;100.00;98640.21;2094448;85;21069;-85
2021/09/25 01:53:53;;;;;;;11.33;5.40;;;;;;;13.17;100.00;98645.09;2094402;85;21054;-85
2021/09/25 01:56:54;;;;;;;8.40;5.33;;;;;;;13.19;100.00;98645.73;2094400;85;21031;-85
2021/09/25 01:59:55;;;;;;;9.60;5.03;;;;;;;13.21;100.00;98639.77;2094413;85;21014;-85
2021/09/25 02:02:56;;;;;;;7.78;5.42;;;;;;;13.26;100.00;98633.93;2094379;85;21474;-85
2021/09/25 02:05:57;;;;;;;7.53;5.10;;;;;;;13.26;100.00;98643.94;2094412;85;21482;-85
2021/09/25 02:08:57;;;;;;;6.87;5.17;;;;;;;13.27;100.00;98638.98;2094347;85;21050;-85
2021/09/25 02:11:58;;;;;;;5.60;4.50;;;;;;;13.31;100.00;98630.19;2094341;85;21038;-85
2021/09/25 02:14:59;;;;;;;5.17;4.12;;;;;;;13.31;100.00;98630.19;2094285;84;21517;-85
2021/09/25 02:18:00;;;;;;;7.12;4.70;;;;;;;13.33;100.00;98633.42;2110354;84;21036;-85
2021/09/25 02:21:00;;;;;;;14.40;8.10;;;;;;;13.36;100.00;98634.36;2114303;84;20996;-85
2021/09/25 02:24:02;;;;;;;12.00;6.62;;;;;;;13.37;100.00;98630.71;2114108;84;21108;-85
2021/09/25 02:27:02;;;;;;;9.43;5.15;;;;;;;13.41;100.00;98631.92;2114448;84;21084;-85
2021/09/25 02:30:03;;;;;;;8.38;5.72;;;;;;;13.44;100.00;98638.12;2114387;84;21610;-86
2021/09/25 02:33:04;;;;;;;5.65;4.35;;;;;;;13.45;100.00;98629.72;2114580;84;20945;-86
2021/09/25 02:36:05;;;;;;;8.98;4.90;;;;;;;13.46;100.00;98634.77;2114430;84;21016;-85
2021/09/25 02:39:06;;;;;;;6.42;4.20;;;;;;;13.46;100.00;98645.80;2114417;84;21468;-85
2021/09/25 02:42:07;;;;;;;5.40;4.40;;;;;;;13.44;100.00;98634.17;2114530;84;21052;-84
2021/09/25 02:45:07;;;;;;;8.00;4.70;;;;;;;13.49;100.00;98637.50;2114563;84;21045;-84
2021/09/25 02:48:08;;;;;;;5.40;4.30;;;;;;;13.51;100.00;98636.79;2114370;84;21076;-84
2021/09/25 02:51:09;;;;;;;5.05;4.50;;;;;;;13.54;100.00;98637.73;2114525;84;21508;-84
2021/09/25 02:54:10;;;;;;;4.47;4.08;;;;;;;13.57;100.00;98647.33;2114511;84;21021;-84
2021/09/25 02:57:10;;;;;;;6.55;4.97;;;;;;;13.59;100.00;98650.56;2114628;84;21449;-85
2021/09/25 03:00:11;;;;;;;5.33;4.40;;;;;;;13.60;100.00;98652.69;2114491;84;21045;-84
2021/09/25 03:03:12;;;;;;;8.03;4.20;;;;;;;13.61;100.00;98650.36;2114638;84;20933;-85
2021/09/25 03:06:13;;;;;;;8.18;4.55;;;;;;;13.64;100.00;98646.84;2114630;84;20984;-85
2021/09/25 03:09:14;;;;;;;4.58;4.17;;;;;;;13.67;100.00;98649.57;2114582;84;21516;-85
2021/09/25 03:12:15;;;;;;;7.37;5.50;;;;;;;13.68;100.00;98647.75;2114458;84;21056;-84
2021/09/25 03:15:16;;;;;;;6.65;5.47;;;;;;;13.68;100.00;98641.98;2114729;84;21057;-84
2021/09/25 03:18:17;;;;;;;9.28;5.28;;;;;;;13.71;100.00;98638.13;2111691;84;21169;-84
2021/09/25 03:21:18;;;;;;;4.83;4.37;;;;;;;13.71;100.00;98637.63;2110761;84;21141;-86
2021/09/25 03:24:19;;;;;;;5.65;4.62;;;;;;;13.73;100.00;98642.20;2111170;84;21485;-85
2021/09/25 03:27:20;;;;;;;5.05;4.65;;;;;;;13.73;100.00;98642.70;2111037;84;20943;-85
2021/09/25 03:30:20;;;;;;;5.85;5.00;;;;;;;13.72;100.00;98648.98;2111027;84;21529;-85
2021/09/25 03:33:21;;;;;;;5.97;4.95;;;;;;;13.74;100.00;98648.27;2111112;84;21070;-85
2021/09/25 03:36:22;;;;;;;5.47;4.80;;;;;;;13.75;100.00;98648.57;2111186;84;21031;-85
2021/09/25 03:39:23;;;;;;;5.78;5.20;;;;;;;13.76;100.00;98654.13;2111308;84;21526;-85
2021/09/25 03:42:24;;;;;;;7.60;4.33;;;;;;;13.78;100.00;98641.58;2111062;84;21022;-84
2021/09/25 03:45:25;;;;;;;5.65;4.72;;;;;;;13.78;100.00;98641.58;2111773;84;21082;-84
2021/09/25 03:48:25;;;;;;;9.13;5.50;;;;;;;13.86;100.00;98645.33;2111054;84;21034;-85
2021/09/25 03:51:26;;;;;;;5.47;4.83;;;;;;;13.89;100.00;98645.73;2111120;84;20990;-84
2021/09/25 03:54:27;;;;;;;7.60;5.22;;;;;;;13.91;100.00;98648.99;2111145;84;21074;-85
2021/09/25 03:57:28;;;;;;;8.00;5.50;;;;;;;13.96;100.00;98649.69;2111145;84;21557;-86
2021/09/25 04:00:29;;;;;;;6.47;5.20;;;;;;;13.97;100.00;98646.03;2111010;84;21013;-86
2021/09/25 04:03:29;;;;;;;6.00;5.40;;;;;;;14.00;100.00;98649.60;2110982;84;21046;-86
2021/09/25 04:06:30;;;;;;;6.70;4.97;;;;;;;14.01;100.00;98648.58;2110919;84;21034;-85
2021/09/25 04:09:31;;;;;;;5.22;4.80;;;;;;;14.02;100.00;98650.70;2110999;84;21516;-84
2021/09/25 04:12:32;;;;;;;6.05;4.85;;;;;;;14.04;100.00;98646.85;2111045;84;20999;-84
2021/09/25 04:15:32;;;;;;;7.62;6.83;;;;;;;14.06;100.00;98649.28;2111244;84;21502;-84
2021/09/25 04:18:33;;;;;;;7.50;6.40;;;;;;;14.08;100.00;98650.72;2096770;84;21047;-84
2021/09/25 04:21:34;;;;;;;10.75;6.95;;;;;;;14.10;100.00;98652.63;2094491;85;20979;-84
2021/09/25 04:24:35;;;;;;;10.80;6.37;;;;;;;14.12;100.00;98648.47;2094366;85;21513;-84
2021/09/25 04:27:36;;;;;;;9.18;5.70;;;;;;;14.11;100.00;98651.61;2094474;85;21015;-87
2021/09/25 04:30:37;;;;;;;6.83;5.05;;;;;;;14.13;100.00;98656.16;2094395;84;21097;-87
2021/09/25 04:33:37;;;;;;;9.70;6.20;;;;;;;14.16;100.00;98649.16;2094418;85;21049;-84
2021/09/25 04:36:40;;;;;;;7.40;5.78;;;;;;;14.17;100.00;98656.55;2094446;85;21026;-86
2021/09/25 04:39:41;;;;;;;7.28;5.28;;;;;;;14.18;100.00;98664.28;2094493;85;21002;-85
2021/09/25 04:42:42;;;;;;;5.15;4.67;;;;;;;14.21;100.00;98657.78;2094516;85;21049;-85
2021/09/25 04:45:43;;;;;;;9.90;4.78;;;;;;;14.21;100.00;98657.78;2094465;84;21086;-86
2021/09/25 04:48:48;;;;;;;7.90;5.33;;;;;;;14.22;100.00;98664.16;2094147;85;21046;-85
2021/09/25 04:51:47;;;;;;;6.70;5.17;;;;;;;14.25;100.00;98664.25;2094268;85;21118;-87
2021/09/25 04:54:48;;;;;;;6.00;5.40;;;;;;;14.28;100.00;98661.73;2094412;85;21503;-86
2021/09/25 04:57:48;;;;;;;7.97;6.37;;;;;;;14.28;100.00;98657.79;2094431;85;21093;-84
2021/09/25 05:00:49;;;;;;;7.20;5.78;;;;;;;14.30;100.00;98653.92;2094566;85;21057;-85
2021/09/25 05:03:50;;;;;;;10.20;6.45;;;;;;;14.28;100.00;98659.91;2094454;85;21019;-85
2021/09/25 05:06:51;;;;;;;8.03;6.42;;;;;;;14.30;100.00;98677.63;2094420;85;20995;-84
2021/09/25 05:09:52;;;;;;;12.47;6.30;;;;;;;14.34;100.00;98683.28;2094278;85;21039;-85
2021/09/25 05:12:52;;;;;;;6.42;5.47;;;;;;;14.35;100.00;98690.98;2094532;85;21644;-85
2021/09/25 05:15:53;;;;;;;6.65;5.58;;;;;;;14.39;100.00;98691.40;2094446;85;21034;-85
2021/09/25 05:18:54;;;;;;;6.58;5.40;;;;;;;14.44;100.00;98697.66;2111764;84;21563;-85
2021/09/25 05:21:55;;;;;;;7.37;5.03;;;;;;;14.46;100.00;98700.95;2114415;84;21087;-85
2021/09/25 05:24:56;;;;;;;6.50;5.60;;;;;;;14.48;100.00;98698.91;2114098;84;21024;-85
2021/09/25 05:27:57;;;;;;;7.08;6.45;;;;;;;14.53;100.00;98694.33;2114493;84;21570;-86
2021/09/25 05:30:57;;;;;;;8.83;6.80;;;;;;;14.57;100.00;98691.61;2114313;84;21067;-86
2021/09/25 05:33:58;;;;;;;8.93;6.62;;;;;;;14.61;100.00;98686.22;2114618;84;21140;-86
2021/09/25 05:36:59;;;;;;;8.68;6.40;;;;;;;14.63;100.00;98680.73;2114741;84;21060;-86
2021/09/25 05:40:00;;;;;;;8.98;6.55;;;;;;;14.66;100.00;98682.98;2114415;84;20997;-85
2021/09/25 05:43:01;;;;;;;6.25;5.15;;;;;;;14.71;100.00;98684.47;2114544;84;21043;-85
2021/09/25 05:46:02;;;;;;;5.80;5.22;;;;;;;14.75;100.00;98677.28;2114530;84;21499;-86
2021/09/25 05:49:03;;;;;;;7.10;4.75;;;;;;;14.80;100.00;98675.32;2114733;84;21019;-85
2021/09/25 05:52:06;;;;;;;6.20;5.65;;;;;;;14.85;100.00;98669.44;2114338;84;21067;-85
2021/09/25 05:55:06;;;;;;;6.33;5.47;;;;;;;14.87;100.00;98673.48;2114592;84;21089;-88
2021/09/25 05:58:07;;;;;;;7.80;5.37;;;;;;;14.90;100.00;98673.05;2115065;84;21040;-86
2021/09/25 06:01:08;;;;;;;6.08;5.58;;;;;;;14.96;100.00;98683.30;2114471;84;21037;-85
2021/09/25 06:04:08;;;;;;;10.03;7.10;;;;;;;15.01;100.00;98680.85;2114558;84;21571;-85
2021/09/25 06:07:11;;;;;;;8.60;6.83;;;;;;;15.07;100.00;98679.48;2114429;84;21599;-85
2021/09/25 06:10:12;;;;;;;9.88;6.37;;;;;;;15.16;100.00;98677.42;2114319;84;20997;-85
2021/09/25 06:13:13;;;;;;;8.03;5.92;;;;;;;15.23;100.00;98678.72;2114452;84;21076;-85
2021/09/25 06:16:14;;;;;;;7.03;6.12;;;;;;;15.32;100.00;98688.82;2114287;84;21531;-86
2021/09/25 06:19:14;;;;;;;7.53;6.08;;;;;;;15.40;100.00;98690.92;2114192;84;21402;-86
2021/09/25 06:22:15;;;;;;;7.87;6.60;;;;;;;15.49;100.00;98691.78;2114506;84;21012;-88
2021/09/25 06:25:16;;;;;;;6.95;6.17;;;;;;;15.56;100.00;98689.12;2114321;84;21032;-85
2021/09/25 06:28:17;;;;;;;6.50;5.87;;;;;;;15.66;100.00;98693.95;2114411;84;21488;-87
2021/09/25 06:31:18;;;;;;;7.42;5.50;;;;;;;15.69;100.00;98694.33;2114577;84;20993;-85
2021/09/25 06:34:19;;;;;;;6.67;6.08;;;;;;;15.76;100.00;98709.62;2114296;84;21559;-86
2021/09/25 06:37:20;;;;;;;6.00;5.40;;;;;;;15.84;100.00;98707.25;2114445;83;20979;-84
2021/09/25 06:40:21;;;;;;;8.33;5.47;;;;;;;15.85;100.00;98709.66;2110122;84;20994;-87
2021/09/25 06:43:21;;;;;;;6.83;6.22;;;;;;;15.85;100.00;98708.34;2110103;84;21489;-85
2021/09/25 06:46:22;;;;;;;8.18;6.00;;;;;;;15.90;100.00;98709.02;2109972;84;20947;-86
2021/09/25 06:49:24;;;;;;;6.95;6.25;;;;;;;15.98;100.00;98706.63;2110104;84;21629;-85
2021/09/25 06:52:25;;;;;;;9.25;7.42;;;;;;;16.01;100.00;98707.55;2110064;84;21065;-85
2021/09/25 06:55:25;;;;;;;7.50;6.80;;;;;;;16.04;100.00;98715.02;2109985;84;21018;-83
2021/09/25 06:58:26;;;;;;;7.47;6.58;;;;;;;16.09;100.00;98714.69;2109896;84;21057;-88
2021/09/25 07:01:27;;;;;;;7.95;6.90;;;;;;;16.14;100.00;98710.07;2110210;84;21145;-89
2021/09/25 07:04:28;;;;;;;23.95;19.57;;;;;;;16.21;100.00;98709.51;2110135;84;21070;-87
2021/09/25 07:07:29;;;;;;;26.62;21.82;;;;;;;16.26;100.00;98717.58;2110086;84;21580;-86
2021/09/25 07:10:29;;;;;;;26.97;24.30;;;;;;;16.31;100.00;98714.30;2110672;84;21006;-91
2021/09/25 07:13:30;;;;;;;13.20;11.95;;;;;;;16.35;100.00;98720.25;2111168;84;20983;-89
2021/09/25 07:16:31;;;;;;;8.65;7.65;;;;;;;16.38;100.00;98729.08;2112161;84;21045;-88
2021/09/25 07:19:32;;;;;;;14.33;8.58;;;;;;;16.42;100.00;98732.89;2108333;84;21069;-85
2021/09/25 07:22:33;;;;;;;121.15;58.75;;;;;;;16.44;100.00;98732.16;2107399;84;21065;-86
2021/09/25 07:25:36;;;;;;;121.00;56.60;;;;;;;16.50;100.00;98726.02;2106573;85;21530;-88
2021/09/25 07:28:36;;;;;;;74.07;37.90;;;;;;;16.56;100.00;98730.16;2106548;84;21602;-89
2021/09/25 07:31:37;;;;;;;33.05;17.90;;;;;;;16.59;100.00;98726.55;2106755;84;21157;-86
2021/09/25 07:34:38;;;;;;;14.90;8.55;;;;;;;16.62;100.00;98730.59;2106665;84;21538;-87
2021/09/25 07:37:39;;;;;;;9.50;6.90;;;;;;;16.65;100.00;98731.49;2107148;84;21017;-85
2021/09/25 07:40:39;;;;;;;7.33;6.50;;;;;;;16.69;100.00;98730.86;2107281;84;21010;-85
2021/09/25 07:43:40;;;;;;;8.80;5.95;;;;;;;16.70;100.00;98739.08;2107112;84;21099;-85
2021/09/25 07:46:41;;;;;;;7.90;7.08;;;;;;;16.70;100.00;98732.47;2106830;84;21110;-84
2021/09/25 07:49:42;;;;;;;11.25;6.78;;;;;;;16.76;100.00;98740.05;2106915;84;21039;-89
2021/09/25 07:52:43;;;;;;;9.28;6.97;;;;;;;16.81;100.00;98740.19;2106504;84;21093;-86
2021/09/25 07:55:44;;;;;;;11.28;7.60;;;;;;;16.84;100.00;98743.73;2108634;84;21554;-84
2021/09/25 07:58:44;;;;;;;109.95;57.40;;;;;;;16.88;100.00;98745.42;2108987;84;21050;-83
2021/09/25 08:01:45;;;;;;;80.28;46.02;;;;;;;16.93;100.00;98743.75;2108249;84;21037;-87
2021/09/25 08:04:46;;;;;;;49.93;29.72;;;;;;;17.01;100.00;98751.91;2106952;84;21023;-86
2021/09/25 08:07:47;;;;;;;22.55;13.90;;;;;;;17.10;100.00;98759.01;2106920;84;21081;-87
2021/09/25 08:10:48;;;;;;;15.28;10.28;;;;;;;17.15;100.00;98752.05;2106447;84;21043;-85
2021/09/25 08:13:49;;;;;;;15.78;10.90;;;;;;;17.21;100.00;98759.63;2106217;85;21570;-89
2021/09/25 08:16:50;;;;;;;9.75;7.03;;;;;;;17.28;100.00;98759.01;2106422;84;21071;-88
2021/09/25 08:19:51;;;;;;;10.55;7.65;;;;;;;17.33;100.00;98761.81;2111954;84;21014;-87
2021/09/25 08:22:51;;;;;;;9.13;6.85;;;;;;;17.39;100.00;98763.58;2112798;84;21061;-87
2021/09/25 08:25:53;;;;;;;13.18;7.40;;;;;;;17.47;100.00;98773.87;2112799;84;21478;-87
2021/09/25 08:28:54;;;;;;;7.00;5.80;;;;;;;17.52;100.00;98765.25;2112637;84;21065;-88
2021/09/25 08:31:55;;;;;;;8.78;6.95;;;;;;;17.56;100.00;98764.59;2112796;84;21113;-89
2021/09/25 08:34:56;;;;;;;8.93;8.13;;;;;;;17.66;100.00;98764.58;2112864;84;20999;-86
2021/09/25 08:37:56;;;;;;;15.90;12.63;;;;;;;17.75;100.00;98768.05;2112749;84;21088;-85
2021/09/25 08:40:58;;;;;;;50.95;32.00;;;;;;;17.81;100.00;98768.97;2112816;84;21017;-87
2021/09/25 08:43:59;;;;;;;19.25;12.13;;;;;;;17.88;100.00;98767.84;2113003;84;21001;-86
2021/09/25 08:47:02;;;;;;;12.90;9.68;;;;;;;17.96;100.00;98769.89;2084578;84;21014;-85
2021/09/25 08:50:03;;;;;;;10.72;8.90;;;;;;;18.03;100.00;98772.74;2112707;84;21105;-87
2021/09/25 08:53:04;;;;;;;9.65;8.60;;;;;;;18.14;100.00;98776.45;2112603;84;21030;-83
2021/09/25 08:56:05;;;;;;;9.15;8.25;;;;;;;18.28;100.00;98772.55;2112435;84;21041;-88
2021/09/25 08:59:05;;;;;;;9.75;7.35;;;;;;;18.38;100.00;98782.11;2112444;84;21121;-85
2021/09/25 09:02:08;;;;;;;8.85;7.67;;;;;;;18.41;100.00;98780.83;2112553;84;20974;-88
2021/09/25 09:05:09;;;;;;;11.10;7.15;;;;;;;18.41;100.00;98787.46;2112618;84;21699;-85
2021/09/25 09:08:10;;;;;;;8.00;7.20;;;;;;;18.47;100.00;98782.58;2112334;84;20990;-83
2021/09/25 09:11:10;;;;;;;11.33;7.83;;;;;;;18.47;100.00;98786.56;2112762;84;21115;-88
2021/09/25 09:14:11;;;;;;;9.40;7.15;;;;;;;18.48;100.00;98785.52;2112767;84;21056;-85
2021/09/25 09:17:12;;;;;;;10.08;7.33;;;;;;;18.54;100.00;98785.11;2112858;84;21485;-86
2021/09/25 09:20:13;;;;;;;10.55;6.90;;;;;;;18.60;100.00;98788.98;2112659;84;21073;-88
2021/09/25 09:23:14;;;;;;;10.58;7.97;;;;;;;18.70;100.00;98791.09;2112582;84;20994;-85
2021/09/25 09:26:16;;;;;;;25.75;22.02;;;;;;;18.82;100.00;98788.44;2112648;84;21547;-89
2021/09/25 09:29:17;;;;;;;15.28;13.10;;;;;;;18.94;100.00;98792.72;2112859;84;21497;-87
2021/09/25 09:32:18;;;;;;;12.18;8.48;;;;;;;19.03;100.00;98801.14;2112739;84;21533;-87
2021/09/25 09:35:19;;;;;;;10.82;8.13;;;;;;;19.10;100.00;98799.67;2112818;84;21033;-87
2021/09/25 09:38:20;;;;;;;7.97;6.87;;;;;;;19.15;100.00;98800.59;2112658;84;20986;-88
2021/09/25 09:41:21;;;;;;;9.53;7.25;;;;;;;19.27;100.00;98807.20;2112623;84;21102;-87
2021/09/25 09:44:21;;;;;;;8.63;7.12;;;;;;;19.43;100.00;98797.72;2112811;84;21512;-87
2021/09/25 09:47:22;;;;;;;10.45;8.70;;;;;;;19.57;100.00;98797.79;2112254;84;21057;-87
2021/09/25 09:50:23;;;;;;;8.75;7.40;;;;;;;19.69;100.00;98792.43;2113110;84;21561;-87
2021/09/25 09:53:24;;;;;;;9.93;7.78;;;;;;;19.79;100.00;98797.94;2113461;84;21486;-88
2021/09/25 09:56:25;;;;;;;11.18;8.30;;;;;;;19.92;100.00;98797.64;2112858;84;21589;-88
2021/09/25 09:59:26;;;;;;;8.98;7.35;;;;;;;20.05;100.00;98788.06;2112598;84;21022;-91
2021/09/25 10:02:27;;;;;;;7.42;6.72;;;;;;;20.07;100.00;98793.94;2112718;84;21328;-90
2021/09/25 10:05:27;;;;;;;9.35;7.42;;;;;;;20.12;100.00;98799.36;2112766;84;21529;-89
2021/09/25 10:08:28;;;;;;;32.25;22.73;;;;;;;20.18;100.00;98797.58;2112600;84;21009;-89
2021/09/25 10:11:29;;;;;;;21.23;14.83;;;;;;;20.20;100.00;98793.34;2112544;84;21009;-85
2021/09/25 10:14:30;;;;;;;16.97;9.33;;;;;;;20.33;100.00;98797.04;2112641;84;21012;-89
2021/09/25 10:17:31;;;;;;;17.20;10.50;;;;;;;20.43;100.00;98794.58;2112827;84;21371;-89
2021/09/25 10:20:31;;;;;;;17.52;10.10;;;;;;;20.54;100.00;98796.34;2112243;84;21501;-92
2021/09/25 10:23:32;;;;;;;12.33;8.85;;;;;;;20.68;100.00;98796.84;2112582;84;21026;-86
2021/09/25 10:26:33;;;;;;;11.83;10.05;;;;;;;20.81;100.00;98808.99;2112672;84;21029;-87
2021/09/25 10:29:34;;;;;;;16.60;9.48;;;;;;;20.87;99.62;98804.84;2112535;84;21027;-86
2021/09/25 10:32:39;;;;;;;10.05;7.97;;;;;;;20.94;99.68;98815.33;2112928;84;21562;-88
2021/09/25 10:35:37;;;;;;;8.05;7.25;;;;;;;20.98;96.65;98808.45;2110790;84;21609;-87
2021/09/25 10:38:39;;;;;;;20.37;8.23;;;;;;;21.00;97.57;98805.82;2112465;84;21920;-88
2021/09/25 10:41:40;;;;;;;9.48;8.38;;;;;;;21.08;97.28;98805.13;2112495;84;21038;-89
2021/09/25 10:44:41;;;;;;;7.65;6.85;;;;;;;21.17;95.95;98808.45;2112583;84;21584;-89
2021/09/25 10:47:42;;;;;;;8.53;7.65;;;;;;;21.22;96.24;98807.20;2112617;84;21623;-89
2021/09/25 10:50:43;;;;;;;7.78;6.92;;;;;;;21.35;97.43;98808.72;2112716;84;21093;-83
2021/09/25 10:53:44;;;;;;;15.83;12.23;;;;;;;21.46;95.11;98810.98;2112579;84;21019;-83
2021/09/25 10:56:45;;;;;;;11.57;9.28;;;;;;;21.49;94.62;98806.51;2113024;84;21061;-83
2021/09/25 10:59:46;;;;;;;13.05;10.08;;;;;;;21.49;94.34;98805.98;2112859;84;20951;-82
2021/09/25 11:02:46;;;;;;;12.65;8.85;;;;;;;21.51;94.82;98813.19;2112616;84;21009;-86
2021/09/25 11:05:47;;;;;;;12.55;8.50;;;;;;;21.54;93.00;98805.22;2112813;84;21049;-85
2021/09/25 11:08:48;;;;;;;10.38;8.85;;;;;;;21.59;93.30;98813.29;2112610;84;20994;-82
2021/09/25 11:11:49;;;;;;;10.05;7.90;;;;;;;21.67;92.84;98812.02;2112376;84;21116;-84
2021/09/25 11:14:52;;;;;;;9.63;8.18;;;;;;;21.74;92.97;98822.77;2112640;84;21038;-83
2021/09/25 11:17:53;;;;;;;11.68;8.18;;;;;;;21.77;91.76;98817.49;2112509;84;21093;-84
2021/09/25 11:20:53;;;;;;;9.50;7.60;;;;;;;21.75;91.69;98823.05;2112753;84;21557;-81
2021/09/25 11:23:54;;;;;;;9.15;7.47;;;;;;;21.76;90.29;98814.02;2112861;84;21022;-82
2021/09/25 11:26:55;;;;;;;10.43;7.35;;;;;;;21.71;90.54;98815.81;2112823;84;21569;-82
2021/09/25 11:29:56;;;;;;;8.28;7.35;;;;;;;21.66;90.13;98819.73;2112780;84;20983;-82
2021/09/25 11:32:56;;;;;;;10.20;9.20;;;;;;;21.64;89.57;98814.66;2112907;84;21045;-82
2021/09/25 11:35:57;;;;;;;8.05;7.25;;;;;;;21.64;90.23;98806.67;2112791;84;21070;-81
2021/09/25 11:38:58;;;;;;;7.22;6.53;;;;;;;21.63;89.48;98815.72;2112904;84;21533;-82
2021/09/25 11:41:59;;;;;;;8.40;7.62;;;;;;;21.65;89.18;98813.61;2112685;84;21061;-81
2021/09/25 11:45:00;;;;;;;8.60;6.97;;;;;;;21.67;89.69;98809.36;2112637;84;20976;-81
2021/09/25 11:48:00;;;;;;;11.03;9.05;;;;;;;21.70;89.05;98819.53;2112656;84;21645;-82
2021/09/25 11:51:02;;;;;;;11.48;8.25;;;;;;;21.73;89.27;98817.70;2112437;84;21097;-81
2021/09/25 11:54:03;;;;;;;8.45;7.65;;;;;;;21.83;89.02;98814.61;2112628;84;21091;-81
2021/09/25 11:57:04;;;;;;;7.53;6.62;;;;;;;21.88;88.36;98817.07;2112609;84;20964;-82
2021/09/25 12:00:04;;;;;;;7.65;6.95;;;;;;;21.92;86.77;98820.30;2112625;84;21077;-82
2021/09/25 12:03:05;;;;;;;8.73;7.72;;;;;;;21.90;87.12;98823.75;2112746;84;21117;-82
2021/09/25 12:06:06;;;;;;;7.83;7.00;;;;;;;21.88;87.26;98817.88;2112590;84;20998;-82
2021/09/25 12:09:07;;;;;;;9.13;8.23;;;;;;;21.78;86.15;98823.91;2112498;84;21017;-81
2021/09/25 12:12:08;;;;;;;11.57;8.30;;;;;;;21.76;86.70;98822.52;2112717;84;21474;-82
2021/09/25 12:15:09;;;;;;;9.03;7.67;;;;;;;21.72;87.22;98820.89;2112491;84;21149;-81
2021/09/25 12:18:09;;;;;;;6.97;6.37;;;;;;;21.68;84.89;98818.45;2112722;84;21534;-81
2021/09/25 12:21:10;;;;;;;8.75;7.90;;;;;;;21.60;85.60;98822.89;2112598;84;21050;-81
2021/09/25 12:24:11;;;;;;;7.50;6.80;;;;;;;21.53;86.48;98816.41;2112666;84;21050;-82
2021/09/25 12:27:12;;;;;;;7.12;6.45;;;;;;;21.54;86.78;98816.68;2112500;84;20943;-82
2021/09/25 12:30:14;;;;;;;10.53;7.35;;;;;;;21.53;87.20;98825.73;2112486;84;21045;-87
2021/09/25 12:33:15;;;;;;;8.13;7.33;;;;;;;21.52;86.90;98825.45;2112503;84;21014;-85
2021/09/25 12:36:17;;;;;;;7.87;7.10;;;;;;;21.52;87.33;98828.12;2112643;84;21017;-85
2021/09/25 12:39:18;;;;;;;7.40;6.47;;;;;;;21.57;88.58;98825.50;2112791;84;21006;-85
2021/09/25 12:42:19;;;;;;;9.78;7.37;;;;;;;21.60;87.20;98830.08;2112609;84;21013;-84
2021/09/25 12:45:19;;;;;;;11.08;8.85;;;;;;;21.62;88.63;98831.96;2112400;84;21062;-84
2021/09/25 12:48:22;;;;;;;9.93;8.23;;;;;;;21.62;87.58;98831.44;2112482;84;21034;-83
2021/09/25 12:51:22;;;;;;;9.20;6.55;;;;;;;21.64;86.49;98832.51;2112469;84;21085;-83
2021/09/25 12:54:23;;;;;;;6.72;5.83;;;;;;;21.55;85.30;98829.47;2112531;84;21093;-84
2021/09/25 12:57:24;;;;;;;9.58;6.67;;;;;;;21.52;85.49;98821.45;2112605;84;21018;-84
2021/09/25 13:00:27;;;;;;;7.85;7.05;;;;;;;21.57;86.56;98827.36;2112773;84;21073;-84
2021/09/25 13:03:27;;;;;;;8.53;7.62;;;;;;;21.63;86.88;98829.57;2112609;84;21031;-85
2021/09/25 13:06:28;;;;;;;9.50;7.80;;;;;;;21.68;86.25;98826.45;2111983;84;21002;-84
2021/09/25 13:09:29;;;;;;;8.45;6.90;;;;;;;21.72;85.58;98834.22;2111298;84;21022;-83
2021/09/25 13:12:30;;;;;;;8.18;7.20;;;;;;;21.75;85.12;98832.90;2111096;84;21041;-84
2021/09/25 13:15:33;;;;;;;12.93;7.25;;;;;;;21.73;84.38;98835.02;2111023;84;21093;-87
2021/09/25 13:18:33;;;;;;;10.48;7.78;;;;;;;21.72;84.70;98837.41;2111017;84;21049;-85
2021/09/25 13:21:36;;;;;;;8.25;7.03;;;;;;;21.62;82.11;98838.09;2111173;84;20986;-83
2021/09/25 13:24:36;;;;;;;166.28;110.60;;;;;;;21.51;83.02;98839.02;2111393;84;21525;-82
2021/09/25 13:27:37;;;;;;;22.17;15.40;;;;;;;21.41;82.59;98836.23;2111935;84;20982;-84
2021/09/25 13:30:38;;;;;;;11.95;9.50;;;;;;;21.29;82.06;98830.47;2110992;84;21053;-82
2021/09/25 13:33:39;;;;;;;8.25;6.87;;;;;;;21.22;82.42;98827.17;2111020;84;20990;-85
2021/09/25 13:36:40;;;;;;;8.53;7.72;;;;;;;21.16;83.13;98826.01;2111025;84;21477;-85
2021/09/25 13:39:41;;;;;;;7.83;6.67;;;;;;;21.15;83.53;98829.72;2111202;84;20986;-85
2021/09/25 13:42:41;;;;;;;7.80;6.47;;;;;;;21.15;83.83;98830.53;2111019;84;20998;-85
2021/09/25 13:45:42;;;;;;;7.65;6.22;;;;;;;21.16;83.96;98831.33;2111136;84;21009;-81
2021/09/25 13:48:43;;;;;;;8.45;7.45;;;;;;;21.14;84.23;98826.78;2110916;84;21554;-82
2021/09/25 13:51:44;;;;;;;8.93;7.87;;;;;;;21.13;84.56;98827.84;2111167;84;21031;-82
2021/09/25 13:54:45;;;;;;;9.60;6.75;;;;;;;21.06;83.73;98824.54;2111185;84;21037;-81
2021/09/25 13:57:46;;;;;;;10.20;7.47;;;;;;;21.01;84.44;98823.92;2112890;84;20979;-82
2021/09/25 14:00:47;;;;;;;7.85;7.12;;;;;;;20.98;84.62;98835.87;2105629;85;21144;-84